Terminal Aerodrome Forecast
Issued by NWS

Home | Current Version | Previous Version | Text Only | Print | Product List | Glossary On
Versions: 1 2 3 4 5 6 7 8 9 10 11 12 13
000
FTUS46 KMTR 262338
TAFSJC
TAF
KSJC 262338Z 2700/2724 30013KT P6SM SKC
     FM270500 30006KT P6SM SKC
     FM270900 30004KT P6SM OVC015
     FM271700 32008KT P6SM FEW020
     FM271900 31009KT P6SM SKC
     FM272200 30012KT P6SM SKC=

USA.gov is the U.S. government's official web portal to all federal, state and local government web resources and services.